aviador You're here:

KBNO Decoded Metar

BURNS in OR, USA
Report Time2017-05-26 10:53:00
UTC Time2017-05-26 11:18:11
Flight Rules vfr VFR
Wind240° at 05 kt
W.Decomp.*RWY 21: 4.9 kt HW 1.0 kt RCW
RWY 30: 1.0 kt HW 4.9 kt LCW
W.Rank240° ranks 6
Current wind is below 240° avg. (7.8)
Visibility9999 m
Phenomena:N/A
Clouds:N/A
Expected CloudBase > 800 ft AGL from Temp-Dew spread
CeilingNone
Temp01°C (ISA -6)
Dew Point-1°C (87% RH)
AAT-2.9°C
QNH1013 hPa
Density Alt3,543 ft
Elevation4,147 ft
Report Wrong Elevation
Raw Report
KBNO 261053Z AUTO 24005KT 10SM CLR 01/M01 A2990 RMK AO2 SLP124
T00061011=

Extra information for KBNO:More info

Metar Taf Metar & Taf Last 4 Metars F.Rules Stats Wind Profile Meteogram Temp Stats Airport Information Weather charts Add Link Nearby VenuesMetar ALERT Operation Metar Decoded Social comments

AIRNAV info for KBNO